sensor_id;sensor_type;location;lat;lon;timestamp;temperature;humidity
44063;DHT22;29727;47.606;19.130;2023-08-21T00:01:03;25.00;79.90
44063;DHT22;29727;47.606;19.130;2023-08-21T00:03:29;25.00;79.80
44063;DHT22;29727;47.606;19.130;2023-08-21T00:05:55;25.00;79.90
44063;DHT22;29727;47.606;19.130;2023-08-21T00:08:21;24.90;79.60
44063;DHT22;29727;47.606;19.130;2023-08-21T00:10:46;24.90;80.10
44063;DHT22;29727;47.606;19.130;2023-08-21T00:13:13;24.90;80.10
44063;DHT22;29727;47.606;19.130;2023-08-21T00:15:39;24.90;80.20
44063;DHT22;29727;47.606;19.130;2023-08-21T00:18:05;24.70;79.70
44063;DHT22;29727;47.606;19.130;2023-08-21T00:20:31;24.80;80.30
44063;DHT22;29727;47.606;19.130;2023-08-21T00:22:57;24.80;79.70
44063;DHT22;29727;47.606;19.130;2023-08-21T00:25:22;24.80;80.60
44063;DHT22;29727;47.606;19.130;2023-08-21T00:27:48;24.80;80.80
44063;DHT22;29727;47.606;19.130;2023-08-21T00:30:14;24.80;80.90
44063;DHT22;29727;47.606;19.130;2023-08-21T00:32:43;24.80;80.90
44063;DHT22;29727;47.606;19.130;2023-08-21T00:35:08;24.80;80.90
44063;DHT22;29727;47.606;19.130;2023-08-21T00:37:34;24.80;81.00
44063;DHT22;29727;47.606;19.130;2023-08-21T00:40:00;24.70;81.30
44063;DHT22;29727;47.606;19.130;2023-08-21T00:42:25;24.70;81.30
44063;DHT22;29727;47.606;19.130;2023-08-21T00:44:51;24.70;81.20
44063;DHT22;29727;47.606;19.130;2023-08-21T00:47:17;24.70;80.90
44063;DHT22;29727;47.606;19.130;2023-08-21T00:49:45;24.70;80.90
44063;DHT22;29727;47.606;19.130;2023-08-21T00:52:12;24.70;81.00
44063;DHT22;29727;47.606;19.130;2023-08-21T00:54:39;24.70;81.00
44063;DHT22;29727;47.606;19.130;2023-08-21T00:57:05;24.60;81.00
44063;DHT22;29727;47.606;19.130;2023-08-21T00:59:31;24.60;81.10
44063;DHT22;29727;47.606;19.130;2023-08-21T01:01:57;24.60;81.10
44063;DHT22;29727;47.606;19.130;2023-08-21T01:04:22;24.60;81.10
44063;DHT22;29727;47.606;19.130;2023-08-21T01:06:49;24.60;81.00
44063;DHT22;29727;47.606;19.130;2023-08-21T01:09:27;24.50;80.60
44063;DHT22;29727;47.606;19.130;2023-08-21T01:14:59;24.50;81.10
44063;DHT22;29727;47.606;19.130;2023-08-21T01:17:27;24.50;81.00
44063;DHT22;29727;47.606;19.130;2023-08-21T01:19:54;24.50;81.30
44063;DHT22;29727;47.606;19.130;2023-08-21T01:22:24;24.40;81.10
44063;DHT22;29727;47.606;19.130;2023-08-21T01:24:50;24.40;81.60
44063;DHT22;29727;47.606;19.130;2023-08-21T01:27:16;24.40;81.70
44063;DHT22;29727;47.606;19.130;2023-08-21T01:29:42;24.30;81.70
44063;DHT22;29727;47.606;19.130;2023-08-21T01:35:04;24.30;81.60
44063;DHT22;29727;47.606;19.130;2023-08-21T01:37:31;24.30;82.10
44063;DHT22;29727;47.606;19.130;2023-08-21T01:40:00;24.20;82.60
44063;DHT22;29727;47.606;19.130;2023-08-21T01:42:25;24.30;82.70
44063;DHT22;29727;47.606;19.130;2023-08-21T01:44:51;24.20;82.80
44063;DHT22;29727;47.606;19.130;2023-08-21T01:47:16;24.20;82.80
44063;DHT22;29727;47.606;19.130;2023-08-21T01:49:42;24.20;83.00
44063;DHT22;29727;47.606;19.130;2023-08-21T01:52:08;24.10;82.50
44063;DHT22;29727;47.606;19.130;2023-08-21T01:54:33;24.20;83.10
44063;DHT22;29727;47.606;19.130;2023-08-21T01:56:59;24.20;83.10
44063;DHT22;29727;47.606;19.130;2023-08-21T01:59:25;24.20;83.20
44063;DHT22;29727;47.606;19.130;2023-08-21T02:01:51;24.20;83.20
44063;DHT22;29727;47.606;19.130;2023-08-21T02:04:16;24.10;83.60
44063;DHT22;29727;47.606;19.130;2023-08-21T02:06:42;24.10;83.40
44063;DHT22;29727;47.606;19.130;2023-08-21T02:09:09;24.10;83.40
44063;DHT22;29727;47.606;19.130;2023-08-21T02:11:35;24.00;83.40
44063;DHT22;29727;47.606;19.130;2023-08-21T02:14:01;24.00;83.90
44063;DHT22;29727;47.606;19.130;2023-08-21T02:16:28;24.00;83.90
44063;DHT22;29727;47.606;19.130;2023-08-21T02:18:53;24.00;83.90
44063;DHT22;29727;47.606;19.130;2023-08-21T02:21:20;24.00;83.30
44063;DHT22;29727;47.606;19.130;2023-08-21T02:23:45;24.00;83.80
44063;DHT22;29727;47.606;19.130;2023-08-21T02:26:11;24.00;83.60
44063;DHT22;29727;47.606;19.130;2023-08-21T02:28:36;24.00;84.10
44063;DHT22;29727;47.606;19.130;2023-08-21T02:31:02;23.90;84.30
44063;DHT22;29727;47.606;19.130;2023-08-21T02:33:28;23.90;84.80
44063;DHT22;29727;47.606;19.130;2023-08-21T02:35:54;23.80;84.80
44063;DHT22;29727;47.606;19.130;2023-08-21T02:38:19;23.80;84.70
44063;DHT22;29727;47.606;19.130;2023-08-21T02:40:45;23.80;84.50
44063;DHT22;29727;47.606;19.130;2023-08-21T02:43:10;23.80;84.50
44063;DHT22;29727;47.606;19.130;2023-08-21T02:45:36;23.80;84.60
44063;DHT22;29727;47.606;19.130;2023-08-21T02:48:02;23.80;84.50
44063;DHT22;29727;47.606;19.130;2023-08-21T02:50:28;23.80;84.40
44063;DHT22;29727;47.606;19.130;2023-08-21T02:52:53;23.80;84.30
44063;DHT22;29727;47.606;19.130;2023-08-21T02:55:19;23.80;84.20
44063;DHT22;29727;47.606;19.130;2023-08-21T02:57:46;23.90;83.60
44063;DHT22;29727;47.606;19.130;2023-08-21T03:00:12;23.80;84.00
44063;DHT22;29727;47.606;19.130;2023-08-21T03:02:37;23.80;83.90
44063;DHT22;29727;47.606;19.130;2023-08-21T03:05:04;23.80;83.80
44063;DHT22;29727;47.606;19.130;2023-08-21T03:07:29;23.80;83.80
44063;DHT22;29727;47.606;19.130;2023-08-21T03:09:55;23.80;83.80
44063;DHT22;29727;47.606;19.130;2023-08-21T03:12:21;23.90;83.80
44063;DHT22;29727;47.606;19.130;2023-08-21T03:14:46;23.80;83.70
44063;DHT22;29727;47.606;19.130;2023-08-21T03:17:12;23.80;83.70
44063;DHT22;29727;47.606;19.130;2023-08-21T03:19:38;23.80;83.60
44063;DHT22;29727;47.606;19.130;2023-08-21T03:22:03;23.80;83.10
44063;DHT22;29727;47.606;19.130;2023-08-21T03:24:29;23.80;83.80
44063;DHT22;29727;47.606;19.130;2023-08-21T03:26:55;23.80;83.80
44063;DHT22;29727;47.606;19.130;2023-08-21T03:29:20;23.80;83.90
44063;DHT22;29727;47.606;19.130;2023-08-21T03:31:49;23.70;83.80
44063;DHT22;29727;47.606;19.130;2023-08-21T03:34:14;23.70;83.80
44063;DHT22;29727;47.606;19.130;2023-08-21T03:36:40;23.80;83.80
44063;DHT22;29727;47.606;19.130;2023-08-21T03:39:06;23.70;83.70
44063;DHT22;29727;47.606;19.130;2023-08-21T03:41:31;23.70;83.60
44063;DHT22;29727;47.606;19.130;2023-08-21T03:43:57;23.70;83.50
44063;DHT22;29727;47.606;19.130;2023-08-21T03:46:23;23.70;83.70
44063;DHT22;29727;47.606;19.130;2023-08-21T03:48:49;23.70;83.80
44063;DHT22;29727;47.606;19.130;2023-08-21T03:51:16;23.70;83.80
44063;DHT22;29727;47.606;19.130;2023-08-21T03:53:41;23.70;83.40
44063;DHT22;29727;47.606;19.130;2023-08-21T03:56:07;23.70;83.90
44063;DHT22;29727;47.606;19.130;2023-08-21T03:58:33;23.70;83.80
44063;DHT22;29727;47.606;19.130;2023-08-21T04:00:59;23.70;83.80
44063;DHT22;29727;47.606;19.130;2023-08-21T04:03:25;23.70;83.80
44063;DHT22;29727;47.606;19.130;2023-08-21T04:05:53;23.60;83.60
44063;DHT22;29727;47.606;19.130;2023-08-21T04:08:19;23.60;83.60
44063;DHT22;29727;47.606;19.130;2023-08-21T04:10:44;23.60;83.70
44063;DHT22;29727;47.606;19.130;2023-08-21T04:13:10;23.70;83.30
44063;DHT22;29727;47.606;19.130;2023-08-21T04:15:36;23.60;83.70
44063;DHT22;29727;47.606;19.130;2023-08-21T04:18:01;23.60;84.30
44063;DHT22;29727;47.606;19.130;2023-08-21T04:20:27;23.60;83.60
44063;DHT22;29727;47.606;19.130;2023-08-21T04:22:53;23.60;83.10
44063;DHT22;29727;47.606;19.130;2023-08-21T04:25:18;23.60;83.80
44063;DHT22;29727;47.606;19.130;2023-08-21T04:27:44;23.60;83.80
44063;DHT22;29727;47.606;19.130;2023-08-21T04:30:10;23.60;83.80
44063;DHT22;29727;47.606;19.130;2023-08-21T04:32:36;23.60;83.80
44063;DHT22;29727;47.606;19.130;2023-08-21T04:35:02;23.60;84.00
44063;DHT22;29727;47.606;19.130;2023-08-21T04:37:28;23.60;84.20
44063;DHT22;29727;47.606;19.130;2023-08-21T04:39:54;23.60;84.60
44063;DHT22;29727;47.606;19.130;2023-08-21T04:42:21;23.60;84.50
44063;DHT22;29727;47.606;19.130;2023-08-21T04:44:47;23.60;84.50
44063;DHT22;29727;47.606;19.130;2023-08-21T04:47:20;23.70;85.00
44063;DHT22;29727;47.606;19.130;2023-08-21T04:49:46;23.70;85.10
44063;DHT22;29727;47.606;19.130;2023-08-21T04:52:11;23.70;85.40
44063;DHT22;29727;47.606;19.130;2023-08-21T04:54:37;23.80;85.60
44063;DHT22;29727;47.606;19.130;2023-08-21T04:57:03;23.70;85.70
44063;DHT22;29727;47.606;19.130;2023-08-21T04:59:28;23.80;85.70
44063;DHT22;29727;47.606;19.130;2023-08-21T05:01:54;23.80;85.60
44063;DHT22;29727;47.606;19.130;2023-08-21T05:04:19;23.80;85.60
44063;DHT22;29727;47.606;19.130;2023-08-21T05:06:45;23.80;85.60
44063;DHT22;29727;47.606;19.130;2023-08-21T05:09:11;23.80;85.60
44063;DHT22;29727;47.606;19.130;2023-08-21T05:11:36;23.80;85.70
44063;DHT22;29727;47.606;19.130;2023-08-21T05:14:02;23.90;85.60
44063;DHT22;29727;47.606;19.130;2023-08-21T05:16:28;23.90;85.80
44063;DHT22;29727;47.606;19.130;2023-08-21T05:18:53;23.90;85.80
44063;DHT22;29727;47.606;19.130;2023-08-21T05:21:19;24.00;85.10
44063;DHT22;29727;47.606;19.130;2023-08-21T05:23:45;24.00;85.70
44063;DHT22;29727;47.606;19.130;2023-08-21T05:26:11;24.10;85.10
44063;DHT22;29727;47.606;19.130;2023-08-21T05:28:36;24.10;85.60
44063;DHT22;29727;47.606;19.130;2023-08-21T05:31:02;24.10;85.70
44063;DHT22;29727;47.606;19.130;2023-08-21T05:33:28;24.20;86.20
44063;DHT22;29727;47.606;19.130;2023-08-21T05:35:53;24.20;86.00
44063;DHT22;29727;47.606;19.130;2023-08-21T05:38:21;24.30;85.80
44063;DHT22;29727;47.606;19.130;2023-08-21T05:40:48;24.30;86.20
44063;DHT22;29727;47.606;19.130;2023-08-21T05:43:14;24.40;85.90
44063;DHT22;29727;47.606;19.130;2023-08-21T05:45:39;24.40;86.20
44063;DHT22;29727;47.606;19.130;2023-08-21T05:48:05;24.40;86.10
44063;DHT22;29727;47.606;19.130;2023-08-21T05:50:31;24.50;86.00
44063;DHT22;29727;47.606;19.130;2023-08-21T05:52:57;24.50;85.70
44063;DHT22;29727;47.606;19.130;2023-08-21T05:55:23;24.50;85.20
44063;DHT22;29727;47.606;19.130;2023-08-21T05:57:49;24.60;85.50
44063;DHT22;29727;47.606;19.130;2023-08-21T06:00:15;24.70;85.60
44063;DHT22;29727;47.606;19.130;2023-08-21T06:02:41;24.70;85.20
44063;DHT22;29727;47.606;19.130;2023-08-21T06:05:09;24.80;84.60
44063;DHT22;29727;47.606;19.130;2023-08-21T06:07:35;24.90;84.60
44063;DHT22;29727;47.606;19.130;2023-08-21T06:10:00;24.90;84.30
44063;DHT22;29727;47.606;19.130;2023-08-21T06:12:26;25.00;84.30
44063;DHT22;29727;47.606;19.130;2023-08-21T06:14:52;25.00;84.10
44063;DHT22;29727;47.606;19.130;2023-08-21T06:17:17;25.10;83.60
44063;DHT22;29727;47.606;19.130;2023-08-21T06:19:43;25.20;82.90
44063;DHT22;29727;47.606;19.130;2023-08-21T06:22:09;25.20;83.50
44063;DHT22;29727;47.606;19.130;2023-08-21T06:24:35;25.30;83.80
44063;DHT22;29727;47.606;19.130;2023-08-21T06:27:00;25.40;83.70
44063;DHT22;29727;47.606;19.130;2023-08-21T06:29:26;25.40;82.70
44063;DHT22;29727;47.606;19.130;2023-08-21T06:31:52;25.40;83.20
44063;DHT22;29727;47.606;19.130;2023-08-21T06:34:18;25.50;83.10
44063;DHT22;29727;47.606;19.130;2023-08-21T06:36:43;25.60;83.50
44063;DHT22;29727;47.606;19.130;2023-08-21T06:39:09;25.60;82.90
44063;DHT22;29727;47.606;19.130;2023-08-21T06:41:35;25.70;82.30
44063;DHT22;29727;47.606;19.130;2023-08-21T06:44:00;25.80;82.00
44063;DHT22;29727;47.606;19.130;2023-08-21T06:46:26;25.80;81.50
44063;DHT22;29727;47.606;19.130;2023-08-21T06:48:52;25.90;82.70
44063;DHT22;29727;47.606;19.130;2023-08-21T06:51:17;25.90;82.50
44063;DHT22;29727;47.606;19.130;2023-08-21T06:53:43;26.00;81.70
44063;DHT22;29727;47.606;19.130;2023-08-21T06:56:09;26.10;81.90
44063;DHT22;29727;47.606;19.130;2023-08-21T06:58:34;26.20;81.20
44063;DHT22;29727;47.606;19.130;2023-08-21T07:01:01;26.30;81.60
44063;DHT22;29727;47.606;19.130;2023-08-21T07:03:27;26.30;82.10
44063;DHT22;29727;47.606;19.130;2023-08-21T07:05:56;26.40;80.50
44063;DHT22;29727;47.606;19.130;2023-08-21T07:08:23;26.50;81.10
44063;DHT22;29727;47.606;19.130;2023-08-21T07:10:49;26.60;80.80
44063;DHT22;29727;47.606;19.130;2023-08-21T07:13:14;26.70;79.60
44063;DHT22;29727;47.606;19.130;2023-08-21T07:15:40;26.70;79.50
44063;DHT22;29727;47.606;19.130;2023-08-21T07:18:06;26.80;78.70
44063;DHT22;29727;47.606;19.130;2023-08-21T07:20:33;27.00;76.30
44063;DHT22;29727;47.606;19.130;2023-08-21T07:22:59;27.00;76.90
44063;DHT22;29727;47.606;19.130;2023-08-21T07:25:24;27.10;76.90
44063;DHT22;29727;47.606;19.130;2023-08-21T07:27:51;27.20;75.90
44063;DHT22;29727;47.606;19.130;2023-08-21T07:30:19;27.30;76.00
44063;DHT22;29727;47.606;19.130;2023-08-21T07:32:45;27.40;76.60
44063;DHT22;29727;47.606;19.130;2023-08-21T07:35:11;27.50;75.30
44063;DHT22;29727;47.606;19.130;2023-08-21T07:37:37;27.60;73.80
44063;DHT22;29727;47.606;19.130;2023-08-21T07:40:04;27.70;74.70
44063;DHT22;29727;47.606;19.130;2023-08-21T07:42:30;27.80;74.70
44063;DHT22;29727;47.606;19.130;2023-08-21T07:44:56;28.00;73.80
44063;DHT22;29727;47.606;19.130;2023-08-21T07:47:21;28.10;72.80
44063;DHT22;29727;47.606;19.130;2023-08-21T07:49:47;28.20;71.40
44063;DHT22;29727;47.606;19.130;2023-08-21T07:52:13;28.30;72.40
44063;DHT22;29727;47.606;19.130;2023-08-21T07:54:38;28.40;71.70
44063;DHT22;29727;47.606;19.130;2023-08-21T07:57:04;28.50;70.20
44063;DHT22;29727;47.606;19.130;2023-08-21T07:59:30;28.60;70.50
44063;DHT22;29727;47.606;19.130;2023-08-21T08:01:55;28.70;70.70
44063;DHT22;29727;47.606;19.130;2023-08-21T08:04:21;28.80;71.90
44063;DHT22;29727;47.606;19.130;2023-08-21T08:06:47;28.90;70.10
44063;DHT22;29727;47.606;19.130;2023-08-21T08:09:13;29.00;69.70
44063;DHT22;29727;47.606;19.130;2023-08-21T08:11:39;29.10;69.70
44063;DHT22;29727;47.606;19.130;2023-08-21T08:14:04;29.20;71.50
44063;DHT22;29727;47.606;19.130;2023-08-21T08:16:30;29.30;69.90
44063;DHT22;29727;47.606;19.130;2023-08-21T08:18:56;29.50;69.80
44063;DHT22;29727;47.606;19.130;2023-08-21T08:21:21;29.60;69.20
44063;DHT22;29727;47.606;19.130;2023-08-21T08:23:47;29.70;68.60
44063;DHT22;29727;47.606;19.130;2023-08-21T08:26:13;29.70;67.80
44063;DHT22;29727;47.606;19.130;2023-08-21T08:28:38;29.80;67.60
44063;DHT22;29727;47.606;19.130;2023-08-21T08:31:04;29.90;67.50
44063;DHT22;29727;47.606;19.130;2023-08-21T08:33:30;30.00;67.20
44063;DHT22;29727;47.606;19.130;2023-08-21T08:35:55;30.10;67.30
44063;DHT22;29727;47.606;19.130;2023-08-21T08:38:21;30.20;67.00
44063;DHT22;29727;47.606;19.130;2023-08-21T08:40:47;30.30;67.50
44063;DHT22;29727;47.606;19.130;2023-08-21T08:43:13;30.40;67.30
44063;DHT22;29727;47.606;19.130;2023-08-21T08:45:41;30.40;66.60
44063;DHT22;29727;47.606;19.130;2023-08-21T08:48:07;30.50;66.40
44063;DHT22;29727;47.606;19.130;2023-08-21T08:50:34;30.60;65.00
44063;DHT22;29727;47.606;19.130;2023-08-21T08:53:01;30.70;65.20
44063;DHT22;29727;47.606;19.130;2023-08-21T08:55:27;30.80;63.20
44063;DHT22;29727;47.606;19.130;2023-08-21T08:57:53;30.90;64.60
44063;DHT22;29727;47.606;19.130;2023-08-21T09:00:19;31.00;65.40
44063;DHT22;29727;47.606;19.130;2023-08-21T09:02:46;31.20;63.00
44063;DHT22;29727;47.606;19.130;2023-08-21T09:05:12;31.20;62.90
44063;DHT22;29727;47.606;19.130;2023-08-21T09:07:38;31.30;64.80
44063;DHT22;29727;47.606;19.130;2023-08-21T09:10:04;31.40;62.00
44063;DHT22;29727;47.606;19.130;2023-08-21T09:12:38;31.40;62.80
44063;DHT22;29727;47.606;19.130;2023-08-21T09:15:07;31.50;63.60
44063;DHT22;29727;47.606;19.130;2023-08-21T09:17:33;31.60;65.30
44063;DHT22;29727;47.606;19.130;2023-08-21T09:20:06;31.80;64.00
44063;DHT22;29727;47.606;19.130;2023-08-21T09:22:33;31.80;63.70
44063;DHT22;29727;47.606;19.130;2023-08-21T09:25:06;31.90;60.70
44063;DHT22;29727;47.606;19.130;2023-08-21T09:27:33;32.10;63.00
44063;DHT22;29727;47.606;19.130;2023-08-21T09:30:00;32.20;60.00
44063;DHT22;29727;47.606;19.130;2023-08-21T09:32:27;32.40;59.10
44063;DHT22;29727;47.606;19.130;2023-08-21T09:34:53;32.40;59.20
44063;DHT22;29727;47.606;19.130;2023-08-21T09:37:19;32.50;59.50
44063;DHT22;29727;47.606;19.130;2023-08-21T09:39:44;32.60;58.00
44063;DHT22;29727;47.606;19.130;2023-08-21T09:42:11;32.70;56.80
44063;DHT22;29727;47.606;19.130;2023-08-21T09:44:41;32.70;57.60
44063;DHT22;29727;47.606;19.130;2023-08-21T09:47:11;32.80;57.60
44063;DHT22;29727;47.606;19.130;2023-08-21T09:49:38;32.80;57.40
44063;DHT22;29727;47.606;19.130;2023-08-21T09:52:08;32.90;57.60
44063;DHT22;29727;47.606;19.130;2023-08-21T09:54:37;33.00;56.50
44063;DHT22;29727;47.606;19.130;2023-08-21T09:57:04;33.10;57.30
44063;DHT22;29727;47.606;19.130;2023-08-21T09:59:32;33.20;57.60
44063;DHT22;29727;47.606;19.130;2023-08-21T10:02:00;33.30;56.10
44063;DHT22;29727;47.606;19.130;2023-08-21T10:04:29;33.40;57.50
44063;DHT22;29727;47.606;19.130;2023-08-21T10:06:56;33.50;56.30
44063;DHT22;29727;47.606;19.130;2023-08-21T10:09:23;33.60;57.10
44063;DHT22;29727;47.606;19.130;2023-08-21T10:11:50;33.60;55.50
44063;DHT22;29727;47.606;19.130;2023-08-21T10:14:17;33.80;54.70
44063;DHT22;29727;47.606;19.130;2023-08-21T10:16:44;33.80;54.50
44063;DHT22;29727;47.606;19.130;2023-08-21T10:19:14;34.00;55.30
44063;DHT22;29727;47.606;19.130;2023-08-21T10:21:40;34.00;56.10
44063;DHT22;29727;47.606;19.130;2023-08-21T10:24:06;34.10;57.10
44063;DHT22;29727;47.606;19.130;2023-08-21T10:26:38;34.20;55.60
44063;DHT22;29727;47.606;19.130;2023-08-21T10:29:04;34.30;54.70
44063;DHT22;29727;47.606;19.130;2023-08-21T10:31:35;34.40;54.70
44063;DHT22;29727;47.606;19.130;2023-08-21T10:34:09;34.50;51.70
44063;DHT22;29727;47.606;19.130;2023-08-21T10:39:13;34.70;50.00
44063;DHT22;29727;47.606;19.130;2023-08-21T10:41:40;34.80;49.90
44063;DHT22;29727;47.606;19.130;2023-08-21T10:44:06;34.90;50.00
44063;DHT22;29727;47.606;19.130;2023-08-21T10:46:52;35.00;50.60
44063;DHT22;29727;47.606;19.130;2023-08-21T10:49:18;35.10;51.50
44063;DHT22;29727;47.606;19.130;2023-08-21T10:51:44;35.20;49.30
44063;DHT22;29727;47.606;19.130;2023-08-21T10:54:13;35.30;51.00
44063;DHT22;29727;47.606;19.130;2023-08-21T10:56:39;35.40;49.70
44063;DHT22;29727;47.606;19.130;2023-08-21T10:59:05;35.50;49.70
44063;DHT22;29727;47.606;19.130;2023-08-21T11:01:44;35.60;50.20
44063;DHT22;29727;47.606;19.130;2023-08-21T11:04:13;35.60;47.40
44063;DHT22;29727;47.606;19.130;2023-08-21T11:06:39;35.60;50.00
44063;DHT22;29727;47.606;19.130;2023-08-21T11:09:05;35.60;47.80
44063;DHT22;29727;47.606;19.130;2023-08-21T11:11:37;35.50;48.30
44063;DHT22;29727;47.606;19.130;2023-08-21T11:14:03;35.50;47.40
44063;DHT22;29727;47.606;19.130;2023-08-21T11:16:29;35.30;48.10
44063;DHT22;29727;47.606;19.130;2023-08-21T11:18:55;35.10;49.00
44063;DHT22;29727;47.606;19.130;2023-08-21T11:21:23;35.00;49.50
44063;DHT22;29727;47.606;19.130;2023-08-21T11:23:50;35.00;48.60
44063;DHT22;29727;47.606;19.130;2023-08-21T11:26:16;34.90;48.10
44063;DHT22;29727;47.606;19.130;2023-08-21T11:28:42;34.90;48.50
44063;DHT22;29727;47.606;19.130;2023-08-21T11:31:08;34.90;49.70
44063;DHT22;29727;47.606;19.130;2023-08-21T11:33:37;34.80;49.60
44063;DHT22;29727;47.606;19.130;2023-08-21T11:36:04;34.80;48.00
44063;DHT22;29727;47.606;19.130;2023-08-21T11:38:30;34.80;48.70
44063;DHT22;29727;47.606;19.130;2023-08-21T11:41:01;34.80;49.80
44063;DHT22;29727;47.606;19.130;2023-08-21T11:43:34;34.80;50.00
44063;DHT22;29727;47.606;19.130;2023-08-21T11:46:02;34.90;48.90
44063;DHT22;29727;47.606;19.130;2023-08-21T11:48:28;35.00;48.80
44063;DHT22;29727;47.606;19.130;2023-08-21T11:50:55;35.10;48.80
44063;DHT22;29727;47.606;19.130;2023-08-21T11:53:41;35.10;47.90
44063;DHT22;29727;47.606;19.130;2023-08-21T11:56:12;35.20;49.30
44063;DHT22;29727;47.606;19.130;2023-08-21T11:58:43;35.20;48.20
44063;DHT22;29727;47.606;19.130;2023-08-21T12:01:11;35.30;48.60
44063;DHT22;29727;47.606;19.130;2023-08-21T12:03:41;35.40;48.40
44063;DHT22;29727;47.606;19.130;2023-08-21T12:06:08;35.40;49.30
44063;DHT22;29727;47.606;19.130;2023-08-21T12:08:34;35.50;47.80
44063;DHT22;29727;47.606;19.130;2023-08-21T12:11:00;35.50;47.00
44063;DHT22;29727;47.606;19.130;2023-08-21T12:13:26;35.50;47.30
44063;DHT22;29727;47.606;19.130;2023-08-21T12:15:51;35.70;47.70
44063;DHT22;29727;47.606;19.130;2023-08-21T12:18:17;35.80;47.40
44063;DHT22;29727;47.606;19.130;2023-08-21T12:20:43;35.90;47.10
44063;DHT22;29727;47.606;19.130;2023-08-21T12:23:08;36.00;46.20
44063;DHT22;29727;47.606;19.130;2023-08-21T12:25:34;36.20;48.50
44063;DHT22;29727;47.606;19.130;2023-08-21T12:28:00;36.40;48.20
44063;DHT22;29727;47.606;19.130;2023-08-21T12:30:25;36.50;47.40
44063;DHT22;29727;47.606;19.130;2023-08-21T12:32:51;36.70;45.20
44063;DHT22;29727;47.606;19.130;2023-08-21T12:35:17;36.80;45.40
44063;DHT22;29727;47.606;19.130;2023-08-21T12:37:43;36.90;46.00
44063;DHT22;29727;47.606;19.130;2023-08-21T12:40:08;37.00;45.70
44063;DHT22;29727;47.606;19.130;2023-08-21T12:42:34;36.90;45.10
44063;DHT22;29727;47.606;19.130;2023-08-21T12:45:00;36.90;44.20
44063;DHT22;29727;47.606;19.130;2023-08-21T12:47:26;36.80;44.50
44063;DHT22;29727;47.606;19.130;2023-08-21T12:49:51;36.70;45.80
44063;DHT22;29727;47.606;19.130;2023-08-21T12:52:17;36.60;45.90
44063;DHT22;29727;47.606;19.130;2023-08-21T12:54:43;36.50;45.90
44063;DHT22;29727;47.606;19.130;2023-08-21T12:57:09;36.50;46.50
44063;DHT22;29727;47.606;19.130;2023-08-21T12:59:35;36.50;46.30
44063;DHT22;29727;47.606;19.130;2023-08-21T13:02:00;36.60;47.70
44063;DHT22;29727;47.606;19.130;2023-08-21T13:04:27;36.60;45.40
44063;DHT22;29727;47.606;19.130;2023-08-21T13:06:52;36.80;45.80
44063;DHT22;29727;47.606;19.130;2023-08-21T13:09:18;36.90;47.70
44063;DHT22;29727;47.606;19.130;2023-08-21T13:11:44;37.00;44.70
44063;DHT22;29727;47.606;19.130;2023-08-21T13:14:09;37.10;44.60
44063;DHT22;29727;47.606;19.130;2023-08-21T13:16:35;37.10;46.50
44063;DHT22;29727;47.606;19.130;2023-08-21T13:19:01;37.20;42.40
44063;DHT22;29727;47.606;19.130;2023-08-21T13:21:26;37.20;43.70
44063;DHT22;29727;47.606;19.130;2023-08-21T13:23:52;37.20;43.30
44063;DHT22;29727;47.606;19.130;2023-08-21T13:26:18;37.30;45.70
44063;DHT22;29727;47.606;19.130;2023-08-21T13:28:43;37.40;43.30
44063;DHT22;29727;47.606;19.130;2023-08-21T13:31:10;37.50;42.30
44063;DHT22;29727;47.606;19.130;2023-08-21T13:33:47;37.50;40.20
44063;DHT22;29727;47.606;19.130;2023-08-21T13:36:14;37.40;41.40
44063;DHT22;29727;47.606;19.130;2023-08-21T13:38:39;37.40;42.00
44063;DHT22;29727;47.606;19.130;2023-08-21T13:41:06;37.40;42.70
44063;DHT22;29727;47.606;19.130;2023-08-21T13:43:31;37.40;41.60
44063;DHT22;29727;47.606;19.130;2023-08-21T13:45:57;37.40;41.20
44063;DHT22;29727;47.606;19.130;2023-08-21T13:48:23;37.40;42.10
44063;DHT22;29727;47.606;19.130;2023-08-21T13:50:49;37.20;43.00
44063;DHT22;29727;47.606;19.130;2023-08-21T13:53:14;37.20;43.30
44063;DHT22;29727;47.606;19.130;2023-08-21T13:55:40;37.10;42.10
44063;DHT22;29727;47.606;19.130;2023-08-21T13:58:05;37.00;41.90
44063;DHT22;29727;47.606;19.130;2023-08-21T14:00:31;36.90;41.60
44063;DHT22;29727;47.606;19.130;2023-08-21T14:02:57;36.80;42.00
44063;DHT22;29727;47.606;19.130;2023-08-21T14:05:23;36.70;43.80
44063;DHT22;29727;47.606;19.130;2023-08-21T14:07:48;36.70;42.40
44063;DHT22;29727;47.606;19.130;2023-08-21T14:10:14;36.60;42.30
44063;DHT22;29727;47.606;19.130;2023-08-21T14:12:40;36.50;42.80
44063;DHT22;29727;47.606;19.130;2023-08-21T14:15:06;36.40;41.90
44063;DHT22;29727;47.606;19.130;2023-08-21T14:17:32;36.20;41.70
44063;DHT22;29727;47.606;19.130;2023-08-21T14:19:57;36.10;40.90
44063;DHT22;29727;47.606;19.130;2023-08-21T14:22:23;36.10;42.80
44063;DHT22;29727;47.606;19.130;2023-08-21T14:24:49;36.10;42.20
44063;DHT22;29727;47.606;19.130;2023-08-21T14:27:15;36.10;41.50
44063;DHT22;29727;47.606;19.130;2023-08-21T14:29:43;36.10;42.10
44063;DHT22;29727;47.606;19.130;2023-08-21T14:32:09;36.10;42.00
44063;DHT22;29727;47.606;19.130;2023-08-21T14:34:35;36.10;41.90
44063;DHT22;29727;47.606;19.130;2023-08-21T14:37:01;36.00;41.70
44063;DHT22;29727;47.606;19.130;2023-08-21T14:39:29;35.90;41.30
44063;DHT22;29727;47.606;19.130;2023-08-21T14:41:56;35.90;41.30
44063;DHT22;29727;47.606;19.130;2023-08-21T14:44:22;35.80;40.80
44063;DHT22;29727;47.606;19.130;2023-08-21T14:46:48;35.80;42.70
44063;DHT22;29727;47.606;19.130;2023-08-21T14:49:14;35.80;41.90
44063;DHT22;29727;47.606;19.130;2023-08-21T14:51:40;35.80;41.00
44063;DHT22;29727;47.606;19.130;2023-08-21T14:54:06;35.80;42.00
44063;DHT22;29727;47.606;19.130;2023-08-21T14:56:32;35.80;42.00
44063;DHT22;29727;47.606;19.130;2023-08-21T14:58:58;35.80;40.60
44063;DHT22;29727;47.606;19.130;2023-08-21T15:01:24;35.80;41.30
44063;DHT22;29727;47.606;19.130;2023-08-21T15:03:50;35.80;41.70
44063;DHT22;29727;47.606;19.130;2023-08-21T15:06:15;35.70;41.20
44063;DHT22;29727;47.606;19.130;2023-08-21T15:08:41;35.70;43.00
44063;DHT22;29727;47.606;19.130;2023-08-21T15:11:08;35.70;40.60
44063;DHT22;29727;47.606;19.130;2023-08-21T15:13:36;35.60;41.70
44063;DHT22;29727;47.606;19.130;2023-08-21T15:16:02;35.60;41.00
44063;DHT22;29727;47.606;19.130;2023-08-21T15:18:28;35.50;41.30